createdAt,value
2022-11-29T00:02:35.822Z,8
2022-11-29T00:07:40.363Z,8
2022-11-29T00:12:44.789Z,8
2022-11-29T00:17:48.368Z,8
2022-11-29T00:22:52.935Z,8
2022-11-29T00:27:57.675Z,7.9
2022-11-29T00:33:00.955Z,7.9
2022-11-29T00:38:05.524Z,7.9
2022-11-29T00:43:10.056Z,7.9
2022-11-29T00:48:13.598Z,7.9
2022-11-29T00:53:18.153Z,7.9
2022-11-29T00:58:22.659Z,7.9
2022-11-29T01:03:27.196Z,7.8
2022-11-29T01:08:30.805Z,7.8
2022-11-29T01:13:35.307Z,7.9
2022-11-29T01:18:39.823Z,7.9
2022-11-29T01:23:43.389Z,7.9
2022-11-29T01:28:47.896Z,7.8
2022-11-29T01:33:52.446Z,7.7
2022-11-29T01:38:56.013Z,7.8
2022-11-29T01:44:00.512Z,7.7
2022-11-29T01:49:05.056Z,7.8
2022-11-29T01:54:08.606Z,7.8
2022-11-29T01:59:13.105Z,7.8
2022-11-29T02:04:17.651Z,7.9
2022-11-29T02:09:22.189Z,7.9
2022-11-29T02:14:25.729Z,7.8
2022-11-29T02:19:30.263Z,7.8
2022-11-29T02:24:34.842Z,7.8
2022-11-29T02:29:38.345Z,7.8
2022-11-29T02:34:43.292Z,7.9
2022-11-29T02:39:47.476Z,7.8
2022-11-29T02:44:50.964Z,7.9
2022-11-29T02:49:55.526Z,7.9
2022-11-29T02:55:00.064Z,8
2022-11-29T03:00:03.612Z,7.9
2022-11-29T03:05:08.138Z,7.9
2022-11-29T03:10:12.670Z,7.9
2022-11-29T03:15:17.205Z,8
2022-11-29T03:20:20.756Z,8
2022-11-29T03:25:24.352Z,7.9
2022-11-29T03:30:28.838Z,8
2022-11-29T03:35:33.368Z,8
2022-11-29T03:40:36.957Z,8
2022-11-29T03:45:41.458Z,8.1
2022-11-29T03:50:45.989Z,7.9
2022-11-29T03:55:50.556Z,7.9
2022-11-29T04:00:54.162Z,7.9
2022-11-29T04:05:58.649Z,7.9
2022-11-29T04:11:03.187Z,7.9
2022-11-29T04:16:06.723Z,7.9
2022-11-29T04:21:11.214Z,8
2022-11-29T04:26:15.801Z,7.9
2022-11-29T04:31:19.340Z,8.1
2022-11-29T04:36:23.852Z,8.1
2022-11-29T04:41:28.408Z,8.2
2022-11-29T04:46:32.019Z,8.4
2022-11-29T04:51:36.462Z,8.3
2022-11-29T04:56:41.002Z,8.3
2022-11-29T05:01:45.550Z,8.4
2022-11-29T05:06:49.086Z,8.1
2022-11-29T05:11:53.644Z,8
2022-11-29T05:16:58.129Z,8.1
2022-11-29T05:22:02.795Z,7.9
2022-11-29T05:27:07.369Z,7.8
2022-11-29T05:32:11.847Z,7.8
2022-11-29T05:37:16.542Z,7.8
2022-11-29T05:42:21.063Z,7.8
2022-11-29T05:47:31.058Z,7.8
2022-11-29T05:52:29.164Z,7.9
2022-11-29T05:57:33.705Z,7.9
2022-11-29T06:02:38.235Z,7.8
2022-11-29T06:07:42.828Z,7.9
2022-11-29T06:12:47.428Z,7.9
2022-11-29T06:17:51.947Z,8.1
2022-11-29T06:22:56.463Z,8.2
2022-11-29T06:28:00.041Z,8.2
2022-11-29T06:33:04.551Z,8.4
2022-11-29T06:38:09.058Z,8.4
2022-11-29T06:43:12.660Z,8.5
2022-11-29T06:48:17.228Z,8.5
2022-11-29T06:53:21.683Z,8.4
2022-11-29T06:58:25.257Z,8.5
2022-11-29T07:03:29.744Z,8.6
2022-11-29T07:08:34.333Z,8.5
2022-11-29T07:13:38.876Z,8.6
2022-11-29T07:18:43.502Z,8.6
2022-11-29T07:23:48.037Z,8.6
2022-11-29T07:28:52.602Z,8.6
2022-11-29T07:33:56.103Z,8.7
2022-11-29T07:38:59.662Z,8.8
2022-11-29T07:44:04.225Z,8.8
2022-11-29T07:49:08.745Z,8.7
2022-11-29T07:54:13.290Z,8.7
2022-11-29T07:59:16.844Z,8.7
2022-11-29T08:04:21.325Z,8.7
2022-11-29T08:09:25.909Z,8.8
2022-11-29T08:14:29.486Z,8.9
2022-11-29T08:19:33.948Z,8.7
2022-11-29T08:24:38.523Z,8.7
2022-11-29T08:29:42.114Z,8.8
2022-11-29T08:34:47.033Z,8.8
2022-11-29T08:39:51.111Z,8.9
2022-11-29T08:44:55.810Z,8.8
2022-11-29T08:50:00.302Z,8.8
2022-11-29T08:55:04.822Z,8.8
2022-11-29T09:00:09.379Z,8.9
2022-11-29T09:05:12.950Z,8.8
2022-11-29T09:10:17.452Z,8.8
2022-11-29T09:15:22.043Z,8.8
2022-11-29T09:20:25.568Z,8.9
2022-11-29T09:25:30.113Z,8.9
2022-11-29T09:30:34.624Z,8.9
2022-11-29T09:35:38.168Z,9
2022-11-29T09:40:42.686Z,8.9
2022-11-29T09:45:47.282Z,9.1
2022-11-29T09:50:51.773Z,9
2022-11-29T09:55:55.324Z,9
2022-11-29T10:01:00.041Z,8.8
2022-11-29T10:06:04.396Z,8.8
2022-11-29T10:11:07.963Z,8.9
2022-11-29T10:16:12.563Z,9
2022-11-29T10:21:16.994Z,9
2022-11-29T10:26:20.534Z,9.3
2022-11-29T10:31:25.105Z,9.4
2022-11-29T10:36:29.653Z,9.6
2022-11-29T10:41:33.171Z,9.6
2022-11-29T10:46:37.720Z,9.8
2022-11-29T10:51:42.237Z,9.6
2022-11-29T10:56:46.778Z,9.6
2022-11-29T11:01:50.426Z,9.8
2022-11-29T11:06:54.857Z,9.8
2022-11-29T11:11:59.402Z,9.6
2022-11-29T11:17:03.060Z,9.7
2022-11-29T11:22:07.506Z,9.5
2022-11-29T11:27:12.037Z,9.4
2022-11-29T11:32:15.620Z,9.5
2022-11-29T11:37:20.102Z,9.5
2022-11-29T11:42:24.640Z,9.3
2022-11-29T11:47:28.215Z,9.2
2022-11-29T11:52:34.831Z,9.1
2022-11-29T11:57:36.271Z,9.4
2022-11-29T12:02:41.006Z,9.3
2022-11-29T12:08:07.530Z,9.3
2022-11-29T12:12:48.893Z,9.1
2022-11-29T12:17:53.468Z,9.3
2022-11-29T12:22:57.947Z,9.3
2022-11-29T12:28:02.643Z,9.1
2022-11-29T12:33:07.148Z,9.1
2022-11-29T12:38:11.712Z,9.1
2022-11-29T12:43:15.256Z,9.1
2022-11-29T12:48:19.798Z,9.1
2022-11-29T12:53:27.530Z,9.2
2022-11-29T12:58:28.856Z,9.1
2022-11-29T13:03:32.454Z,9.2
2022-11-29T13:08:36.933Z,9.2
2022-11-29T13:13:41.467Z,9.1
2022-11-29T13:18:45.038Z,9.2
2022-11-29T13:24:16.092Z,9
2022-11-29T13:28:54.062Z,8.9
2022-11-29T13:33:57.625Z,8.8
2022-11-29T13:39:02.124Z,9.1
2022-11-29T13:44:06.676Z,9.1
2022-11-29T13:49:10.256Z,9.1
2022-11-29T13:54:14.766Z,9
2022-11-29T13:59:19.303Z,9
2022-11-29T14:04:23.856Z,8.9
2022-11-29T14:09:27.381Z,8.9
2022-11-29T14:14:31.945Z,9
2022-11-29T14:19:36.468Z,8.9
2022-11-29T14:24:40.013Z,8.9
2022-11-29T14:29:44.576Z,9
2022-11-29T14:34:49.083Z,9.1
2022-11-29T14:39:52.600Z,9
2022-11-29T14:44:57.182Z,9.1
2022-11-29T14:50:01.721Z,8.9
2022-11-29T14:55:05.240Z,9
2022-11-29T15:00:09.803Z,9
2022-11-29T15:05:14.364Z,8.9
2022-11-29T15:10:18.834Z,8.7
2022-11-29T15:15:22.368Z,8.8
2022-11-29T15:20:26.955Z,8.8
2022-11-29T15:25:31.449Z,8.8
2022-11-29T15:30:36.135Z,8.8
2022-11-29T15:35:40.674Z,8.9
2022-11-29T15:40:45.191Z,8.9
2022-11-29T15:45:48.940Z,8.9
2022-11-29T15:50:53.336Z,8.8
2022-11-29T15:55:57.784Z,8.7
2022-11-29T16:01:01.409Z,8.6
2022-11-29T16:06:05.888Z,8.5
2022-11-29T16:11:09.421Z,8.3
2022-11-29T16:16:14.056Z,8.3
2022-11-29T16:21:18.527Z,8.2
2022-11-29T16:26:22.061Z,8.2
2022-11-29T16:31:26.628Z,8.3
2022-11-29T16:36:31.148Z,8.3
2022-11-29T16:41:35.811Z,8.3
2022-11-29T16:46:40.295Z,8.3
2022-11-29T16:51:44.904Z,8.2
2022-11-29T16:56:49.416Z,8.2
2022-11-29T17:01:52.996Z,8.3
2022-11-29T17:06:57.538Z,8.4
2022-11-29T17:12:02.030Z,8.5
2022-11-29T17:17:06.642Z,8.5
2022-11-29T17:22:11.209Z,8.7
2022-11-29T17:27:15.747Z,8.6
2022-11-29T17:32:24.896Z,8.6
2022-11-29T17:37:23.856Z,8.5
2022-11-29T17:42:28.323Z,8.5
2022-11-29T17:47:31.917Z,8.6
2022-11-29T17:52:36.472Z,8.4
2022-11-29T17:57:40.950Z,8.5
2022-11-29T18:02:45.655Z,8.1
2022-11-29T18:07:49.086Z,8
2022-11-29T18:12:53.605Z,7.8
2022-11-29T18:17:58.106Z,7.8
2022-11-29T18:23:07.664Z,7.8
2022-11-29T18:28:06.223Z,7.8
2022-11-29T18:33:10.741Z,8
2022-11-29T18:38:16.069Z,7.9
2022-11-29T18:43:18.838Z,7.9
2022-11-29T18:48:23.395Z,7.8
2022-11-29T18:53:26.949Z,7.8
2022-11-29T18:58:31.423Z,7.7
2022-11-29T19:03:35.965Z,7.8
2022-11-29T19:08:40.516Z,7.8
2022-11-29T19:13:44.183Z,7.9
2022-11-29T19:18:48.611Z,7.8
2022-11-29T19:23:53.175Z,7.8
2022-11-29T19:28:56.661Z,7.7
2022-11-29T19:34:01.206Z,7.6
2022-11-29T19:39:05.792Z,7.5
2022-11-29T19:44:09.285Z,7.4
2022-11-29T19:49:13.836Z,7.6
2022-11-29T19:54:18.379Z,7.8
2022-11-29T19:59:23.068Z,7.9
2022-11-29T20:04:27.551Z,8
2022-11-29T20:09:32.106Z,7.9
2022-11-29T20:14:36.634Z,7.9
2022-11-29T20:19:40.254Z,7.7
2022-11-29T20:24:45.504Z,7.9
2022-11-29T20:29:48.758Z,7.9
2022-11-29T20:34:52.784Z,7.9
2022-11-29T20:39:56.415Z,8
2022-11-29T20:45:00.900Z,7.9
2022-11-29T20:50:05.440Z,8.1
2022-11-29T20:55:09.979Z,8
2022-11-29T21:00:13.487Z,8.1
2022-11-29T21:05:18.052Z,8.1
2022-11-29T21:10:22.617Z,8.2
2022-11-29T21:15:26.154Z,8.1
2022-11-29T21:20:30.674Z,8
2022-11-29T21:25:35.232Z,8
2022-11-29T21:30:38.776Z,8.1
2022-11-29T21:35:43.280Z,8.1
2022-11-29T21:40:47.863Z,8
2022-11-29T21:45:51.343Z,8
2022-11-29T21:50:55.894Z,8
2022-11-29T21:56:00.458Z,7.9
2022-11-29T22:01:04.974Z,7.9
2022-11-29T22:06:08.516Z,7.9
2022-11-29T22:11:13.097Z,7.8
2022-11-29T22:16:17.681Z,7.8
2022-11-29T22:21:21.161Z,7.9
2022-11-29T22:26:25.674Z,7.9
2022-11-29T22:31:30.274Z,7.9
2022-11-29T22:36:33.790Z,7.9
2022-11-29T22:41:38.318Z,8
2022-11-29T22:46:42.921Z,8.1
2022-11-29T22:51:47.513Z,8
2022-11-29T22:56:52.040Z,7.7
2022-11-29T23:01:56.617Z,7.9
2022-11-29T23:07:01.062Z,7.9
2022-11-29T23:12:04.634Z,7.9
2022-11-29T23:17:09.130Z,7.9
2022-11-29T23:22:13.707Z,7.9
2022-11-29T23:27:17.295Z,8
2022-11-29T23:32:21.785Z,7.9
2022-11-29T23:37:26.346Z,7.9
2022-11-29T23:42:29.899Z,8
2022-11-29T23:47:34.370Z,8
2022-11-29T23:52:38.931Z,8
2022-11-29T23:57:42.534Z,7.9
